Albuquerque, NM (87111)

10:31 AM MST on January 27, 2015 (GMT -0700)
Cielito Lindo | Change Station
CLOSE
Current Station
Personal Weather Station
Location: Albuquerque, NM
Elevation: 5648 ft
Nearby Weather Stations
Active Advisory: Special Statement

Elev 5648 ft 35.13 °N, 106.52 °W | Updated 49 seconds ago

Clear
Clear
51.9 °F
Feels Like 51.9 °F
N
2.0
Wind Variable Wind from WSW
Gusts 6.0 mph

Today
High -- | Low -- °F
--% Chance of Precip.
Yesterday
High -- | Low -- °F
Precip. -- in
7:08 AM 5:29 PM
First Quarter, 56% visible
Pressure 30.37 in
Visibility 10.0 miles
Clouds Few 7000 ft
Scattered Clouds 8500 ft
Dew Point 31 °F
Humidity 44%
Rainfall 0.00 in
Snow Depth Not available.
UV 2 out of 12
Pollen 4.00 out of 12
Air Quality Not available.
Flu Activity Not available.
METAR KABQ 271652Z 00000KT 10SM FEW070 SCT085 06/M02 A3038 RMK AO2 SLP283 T00561022

More Conditions Fewer Conditions

Pressure 30.37 in
Visibility 10.0 miles
Clouds Few 7000 ft
Scattered Clouds 8500 ft
Dew Point 31 °F
Humidity 44%
Rainfall 0.00 in
Snow Depth Not available.
UV 2 out of 12
Pollen 4.00 out of 12
Air Quality Not available.
Flu Activity Not available.
METAR KABQ 271652Z 00000KT 10SM FEW070 SCT085 06/M02 A3038 RMK AO2 SLP283 T00561022

More Conditions Fewer Conditions

10-Day Weather Forecast

Almanac

Astronomy

Jan. 27, 2015 Rise Set
Actual Time
Civil Twilight
Nautical Twilight
Astronomical Twilight
Moon
Length of Visible Light
Length of Day
Tomorrow will be .
, % of the Moon is Illuminated

Today's Extremes

State Highs State Lows

Community

WunderPhotos

Upload Photos

1,790,732 photos uploaded!

WunderBlogs® & News

Nearby

Air Quality

  Air Quality AQ Index Pollutant
Not available.

Snow Depth

Station Depth Elevation

Earthquake Activity

City Distance Mag. Time & Date
Minimum magnitude displayed is 2.5.

Coastal Water Temperatures

Place Temperature

Nearby Weather Stations